createdAt,value
2023-03-02T00:01:08.490Z,18.63
2023-03-02T00:03:40.223Z,19.43
2023-03-02T00:06:08.866Z,19.43
2023-03-02T00:08:36.234Z,18.03
2023-03-02T00:11:02.985Z,19.00
2023-03-02T00:13:31.907Z,18.10
2023-03-02T00:15:58.503Z,17.90
2023-03-02T00:18:25.232Z,18.07
2023-03-02T00:20:51.793Z,19.50
2023-03-02T00:23:18.871Z,17.87
2023-03-02T00:25:45.486Z,18.50
2023-03-02T00:28:12.071Z,17.80
2023-03-02T00:30:39.597Z,17.57
2023-03-02T00:33:06.215Z,17.80
2023-03-02T00:35:40.726Z,16.17
2023-03-02T00:38:08.236Z,15.83
2023-03-02T00:40:35.628Z,16.30
2023-03-02T00:43:02.214Z,16.13
2023-03-02T00:45:28.853Z,14.83
2023-03-02T00:47:55.654Z,16.07
2023-03-02T00:50:22.443Z,15.87
2023-03-02T00:52:48.993Z,15.17
2023-03-02T00:55:15.655Z,16.30
2023-03-02T00:57:42.215Z,15.50
2023-03-02T01:00:10.076Z,15.00
2023-03-02T01:02:39.064Z,14.53
2023-03-02T01:05:05.999Z,14.97
2023-03-02T01:07:33.197Z,14.67
2023-03-02T01:09:59.782Z,14.47
2023-03-02T01:12:26.338Z,15.00
2023-03-02T01:14:52.953Z,14.53
2023-03-02T01:17:22.038Z,14.17
2023-03-02T01:19:48.627Z,14.90
2023-03-02T01:22:15.211Z,15.00
2023-03-02T01:24:41.809Z,15.00
2023-03-02T01:27:08.439Z,13.90
2023-03-02T01:29:35.240Z,14.53
2023-03-02T01:32:02.340Z,14.13
2023-03-02T01:34:29.033Z,13.83
2023-03-02T01:36:55.899Z,14.40
2023-03-02T01:39:22.602Z,14.37
2023-03-02T01:41:51.362Z,13.53
2023-03-02T01:44:44.697Z,13.67
2023-03-02T01:47:33.460Z,12.67
2023-03-02T01:50:15.222Z,13.03
2023-03-02T01:52:42.127Z,13.40
2023-03-02T01:55:12.584Z,12.97
2023-03-02T01:57:47.974Z,13.13
2023-03-02T02:00:21.164Z,13.10
2023-03-02T02:02:48.946Z,11.87
2023-03-02T02:05:19.632Z,12.07
2023-03-02T02:07:46.370Z,11.87
2023-03-02T02:10:13.683Z,12.47
2023-03-02T02:12:40.338Z,10.70
2023-03-02T02:15:07.734Z,11.27
2023-03-02T02:17:34.938Z,10.87
2023-03-02T02:20:30.342Z,11.80
2023-03-02T02:23:03.633Z,11.37
2023-03-02T02:25:44.892Z,11.43
2023-03-02T02:37:21.648Z,10.80
2023-03-02T02:39:49.762Z,11.80
2023-03-02T02:42:26.593Z,11.47
2023-03-02T02:44:58.056Z,11.50
2023-03-02T02:47:24.937Z,12.07
2023-03-02T02:49:54.267Z,11.33
2023-03-02T02:52:24.023Z,11.83
2023-03-02T02:54:53.733Z,11.53
2023-03-02T02:57:22.060Z,11.33
2023-03-02T02:59:58.588Z,11.33
2023-03-02T03:02:28.323Z,11.23
2023-03-02T03:05:02.613Z,11.30
2023-03-02T03:07:30.958Z,11.23
2023-03-02T03:10:16.252Z,10.70
2023-03-02T03:12:43.316Z,10.83
2023-03-02T03:15:11.237Z,10.43
2023-03-02T03:17:37.871Z,10.90
2023-03-02T03:20:11.009Z,10.50
2023-03-02T03:22:38.824Z,10.87
2023-03-02T03:25:05.995Z,10.77
2023-03-02T03:27:32.647Z,11.20
2023-03-02T03:30:01.798Z,10.43
2023-03-02T03:32:28.736Z,10.67
2023-03-02T03:34:55.493Z,10.37
2023-03-02T03:37:22.204Z,11.60
2023-03-02T03:39:48.924Z,10.87
2023-03-02T03:42:15.817Z,11.07
2023-03-02T03:44:42.601Z,11.20
2023-03-02T03:47:09.211Z,10.80
2023-03-02T03:49:35.811Z,11.50
2023-03-02T03:52:03.475Z,10.83
2023-03-02T03:54:30.724Z,10.60
2023-03-02T03:56:57.344Z,11.10
2023-03-02T03:59:26.891Z,11.00
2023-03-02T04:01:57.091Z,11.40
2023-03-02T04:04:29.734Z,11.20
2023-03-02T04:06:56.996Z,10.80
2023-03-02T04:09:24.242Z,11.50
2023-03-02T04:11:53.770Z,11.20
2023-03-02T04:14:22.370Z,11.20
2023-03-02T04:16:49.316Z,10.63
2023-03-02T04:19:17.487Z,10.90
2023-03-02T04:21:47.998Z,11.50
2023-03-02T04:24:15.993Z,11.20
2023-03-02T04:26:43.368Z,11.60
2023-03-02T04:29:10.990Z,12.03
2023-03-02T04:31:38.216Z,11.70
2023-03-02T04:34:06.175Z,10.93
2023-03-02T04:36:35.334Z,11.13
2023-03-02T04:39:04.147Z,10.33
2023-03-02T04:41:30.816Z,11.17
2023-03-02T04:43:57.580Z,11.23
2023-03-02T04:46:26.819Z,11.33
2023-03-02T04:48:54.236Z,11.80
2023-03-02T04:51:24.910Z,11.27
2023-03-02T04:53:56.763Z,11.30
2023-03-02T04:56:24.341Z,11.43
2023-03-02T04:58:51.146Z,11.87
2023-03-02T05:01:18.977Z,12.47
2023-03-02T05:03:45.990Z,12.67
2023-03-02T05:06:12.914Z,12.53
2023-03-02T05:08:40.115Z,12.07
2023-03-02T05:11:07.843Z,12.47
2023-03-02T05:13:35.788Z,13.50
2023-03-02T05:16:03.214Z,13.30
2023-03-02T05:18:29.984Z,13.27
2023-03-02T05:20:57.168Z,12.70
2023-03-02T05:23:25.574Z,12.63
2023-03-02T05:25:54.312Z,13.17
2023-03-02T05:28:22.768Z,12.30
2023-03-02T05:30:49.904Z,12.60
2023-03-02T05:33:17.007Z,12.20
2023-03-02T05:35:43.905Z,12.97
2023-03-02T05:38:11.663Z,11.63
2023-03-02T05:40:39.350Z,12.13
2023-03-02T05:43:06.621Z,11.60
2023-03-02T05:45:35.937Z,11.80
2023-03-02T05:48:03.383Z,12.53
2023-03-02T05:50:30.027Z,13.60
2023-03-02T05:52:57.015Z,14.10
2023-03-02T05:55:23.710Z,15.03
2023-03-02T05:57:50.466Z,15.20
2023-03-02T06:00:18.018Z,14.70
2023-03-02T06:02:44.634Z,15.70
2023-03-02T06:05:14.028Z,15.90
2023-03-02T06:07:41.040Z,15.93
2023-03-02T06:10:09.317Z,16.60
2023-03-02T06:12:36.293Z,16.03
2023-03-02T06:15:04.994Z,16.37
2023-03-02T06:17:31.601Z,16.17
2023-03-02T06:19:58.183Z,17.10
2023-03-02T06:22:24.801Z,16.57
2023-03-02T06:24:51.526Z,15.63
2023-03-02T06:27:18.065Z,16.60
2023-03-02T06:29:44.633Z,16.23
2023-03-02T06:32:11.294Z,16.40
2023-03-02T06:34:37.994Z,17.47
2023-03-02T06:37:04.559Z,17.00
2023-03-02T06:39:31.154Z,16.43
2023-03-02T06:41:58.686Z,16.20
2023-03-02T06:44:25.323Z,15.67
2023-03-02T06:46:52.002Z,19.03
2023-03-02T06:49:18.594Z,17.37
2023-03-02T06:51:45.204Z,15.80
2023-03-02T06:54:11.848Z,19.00
2023-03-02T06:56:40.919Z,15.90
2023-03-02T06:59:07.842Z,16.63
2023-03-02T07:01:36.197Z,17.33
2023-03-02T07:04:03.650Z,16.10
2023-03-02T07:06:30.261Z,17.93
2023-03-02T07:08:56.823Z,19.40
2023-03-02T07:11:23.826Z,16.00
2023-03-02T07:13:51.328Z,18.10
2023-03-02T07:16:18.083Z,16.97
2023-03-02T07:18:44.715Z,17.60
2023-03-02T07:21:11.364Z,17.63
2023-03-02T07:23:37.980Z,17.30
2023-03-02T07:26:08.417Z,18.33
2023-03-02T07:28:36.989Z,18.67
2023-03-02T07:31:03.842Z,16.97
2023-03-02T07:33:30.524Z,16.00
2023-03-02T07:35:57.358Z,15.70
2023-03-02T07:38:24.018Z,14.60
2023-03-02T07:40:51.528Z,14.63
2023-03-02T07:43:18.110Z,15.17
2023-03-02T07:45:45.100Z,15.13
2023-03-02T07:48:11.699Z,14.20
2023-03-02T07:50:38.369Z,14.83
2023-03-02T07:53:04.993Z,15.00
2023-03-02T07:55:31.598Z,14.50
2023-03-02T07:57:58.187Z,14.70
2023-03-02T08:00:24.943Z,14.53
2023-03-02T08:02:51.790Z,13.67
2023-03-02T08:05:18.464Z,14.67
2023-03-02T08:07:46.554Z,14.47
2023-03-02T08:10:13.205Z,14.47
2023-03-02T08:12:40.334Z,13.70
2023-03-02T08:15:07.460Z,13.87
2023-03-02T08:17:34.044Z,14.30
2023-03-02T08:20:00.675Z,16.03
2023-03-02T08:22:27.262Z,15.73
2023-03-02T08:24:53.894Z,14.37
2023-03-02T08:27:20.454Z,15.77
2023-03-02T08:29:47.024Z,15.20
2023-03-02T08:32:13.754Z,15.27
2023-03-02T08:34:40.459Z,14.03
2023-03-02T08:37:07.096Z,14.77
2023-03-02T08:39:33.729Z,14.17
2023-03-02T08:42:00.307Z,14.23
2023-03-02T08:44:26.932Z,14.70
2023-03-02T08:46:53.612Z,14.57
2023-03-02T08:49:20.197Z,13.83
2023-03-02T08:51:48.956Z,14.50
2023-03-02T08:54:16.200Z,14.33
2023-03-02T08:56:55.839Z,13.77
2023-03-02T08:59:22.515Z,13.53
2023-03-02T09:01:49.250Z,13.87
2023-03-02T09:04:15.916Z,13.10
2023-03-02T09:06:44.652Z,12.20
2023-03-02T09:09:13.899Z,13.43
2023-03-02T09:11:42.273Z,13.87
2023-03-02T09:14:09.004Z,13.10
2023-03-02T09:16:35.789Z,12.50
2023-03-02T09:19:02.651Z,12.30
2023-03-02T09:21:29.236Z,12.60
2023-03-02T09:23:58.050Z,13.63
2023-03-02T09:26:26.376Z,13.77
2023-03-02T09:28:53.083Z,12.73
2023-03-02T09:31:20.064Z,12.67
2023-03-02T09:33:46.769Z,12.43
2023-03-02T09:36:19.432Z,12.53
2023-03-02T09:38:46.273Z,12.17
2023-03-02T09:41:19.158Z,12.50
2023-03-02T09:44:16.843Z,12.53
2023-03-02T09:46:51.678Z,11.97
2023-03-02T09:49:45.215Z,12.33
2023-03-02T09:52:28.790Z,13.10
2023-03-02T09:54:57.156Z,13.10
2023-03-02T09:57:34.369Z,13.43
2023-03-02T10:00:18.279Z,13.93
2023-03-02T10:03:05.151Z,12.83
2023-03-02T10:05:43.904Z,13.30
2023-03-02T10:08:16.859Z,12.40
2023-03-02T10:11:05.414Z,12.93
2023-03-02T10:13:42.261Z,12.10
2023-03-02T10:16:48.173Z,12.80
2023-03-02T10:19:25.190Z,13.00
2023-03-02T10:22:00.353Z,12.30
2023-03-02T10:24:38.586Z,12.50
2023-03-02T10:27:27.513Z,12.07
2023-03-02T10:30:11.794Z,13.33
2023-03-02T10:32:43.865Z,10.90
2023-03-02T10:35:23.433Z,12.07
2023-03-02T10:38:12.294Z,11.60
2023-03-02T10:40:59.973Z,11.70
2023-03-02T10:43:33.405Z,11.87
2023-03-02T10:46:05.139Z,13.10
2023-03-02T10:48:31.752Z,11.80
2023-03-02T10:51:00.262Z,11.07
2023-03-02T10:53:26.906Z,11.83
2023-03-02T10:55:53.979Z,10.87
2023-03-02T10:58:32.272Z,10.60
2023-03-02T11:01:13.871Z,10.70
2023-03-02T11:03:41.000Z,10.53
2023-03-02T11:06:20.898Z,10.87
2023-03-02T11:08:58.950Z,10.40
2023-03-02T11:11:25.874Z,10.37
2023-03-02T11:13:52.730Z,9.87
2023-03-02T11:16:19.255Z,10.53
2023-03-02T11:18:48.455Z,10.13
2023-03-02T11:21:22.449Z,10.50
2023-03-02T11:24:12.705Z,10.77
2023-03-02T11:26:59.540Z,10.77
2023-03-02T11:29:30.997Z,11.20
2023-03-02T11:32:01.744Z,10.67
2023-03-02T11:34:56.280Z,10.73
2023-03-02T11:37:36.670Z,11.57
2023-03-02T11:40:08.996Z,11.67
2023-03-02T11:42:41.767Z,11.07
2023-03-02T11:45:17.211Z,10.90
2023-03-02T11:48:02.446Z,10.57
2023-03-02T11:50:32.455Z,10.17
2023-03-02T11:53:03.472Z,10.63
2023-03-02T11:55:35.805Z,10.77
2023-03-02T11:58:04.653Z,11.03
2023-03-02T12:00:40.882Z,10.37
2023-03-02T12:03:21.279Z,10.67
2023-03-02T12:06:02.018Z,10.57
2023-03-02T12:08:45.638Z,12.00
2023-03-02T12:11:18.034Z,10.80
2023-03-02T12:13:45.964Z,10.83
2023-03-02T12:16:21.915Z,11.50
2023-03-02T12:18:49.905Z,10.23
2023-03-02T12:21:22.749Z,11.23
2023-03-02T12:23:49.247Z,10.53
2023-03-02T12:26:21.871Z,9.67
2023-03-02T12:29:10.190Z,10.43
2023-03-02T12:31:42.990Z,10.70
2023-03-02T12:34:24.469Z,10.80
2023-03-02T12:36:56.326Z,11.47
2023-03-02T12:40:07.763Z,11.00
2023-03-02T12:42:59.646Z,11.43
2023-03-02T12:46:05.606Z,9.87
2023-03-02T12:48:46.372Z,10.87
2023-03-02T12:51:22.061Z,10.83
2023-03-02T12:53:49.669Z,10.90
2023-03-02T12:56:26.167Z,10.70
2023-03-02T12:58:54.120Z,9.70
2023-03-02T13:01:26.711Z,10.43
2023-03-02T13:03:54.267Z,10.23
2023-03-02T13:06:23.077Z,10.77
2023-03-02T13:08:55.410Z,9.77
2023-03-02T13:11:27.158Z,10.20
2023-03-02T13:13:53.861Z,10.03
2023-03-02T13:16:22.591Z,9.50
2023-03-02T13:18:53.789Z,10.00
2023-03-02T13:21:21.674Z,9.87
2023-03-02T13:23:51.730Z,9.33
2023-03-02T13:26:39.862Z,9.60
2023-03-02T13:29:23.063Z,9.30
2023-03-02T13:31:49.859Z,9.47
2023-03-02T13:34:27.093Z,9.53
2023-03-02T13:36:54.628Z,8.30
2023-03-02T13:39:25.339Z,8.07
2023-03-02T13:41:55.696Z,8.10
2023-03-02T13:44:29.205Z,8.10
2023-03-02T13:46:55.941Z,7.70
2023-03-02T13:49:33.510Z,7.43
2023-03-02T13:52:07.049Z,8.17
2023-03-02T13:54:36.812Z,7.90
2023-03-02T13:57:05.169Z,8.03
2023-03-02T13:59:34.780Z,7.73
2023-03-02T14:02:01.444Z,7.87
2023-03-02T14:04:28.137Z,9.30
2023-03-02T14:06:55.274Z,8.87
2023-03-02T14:09:22.211Z,8.37
2023-03-02T14:11:52.445Z,6.87
2023-03-02T14:14:25.045Z,7.53
2023-03-02T14:16:52.000Z,7.00
2023-03-02T14:19:18.930Z,8.33
2023-03-02T14:21:47.346Z,7.83
2023-03-02T14:24:14.330Z,7.87
2023-03-02T14:26:49.130Z,7.77
2023-03-02T14:29:33.383Z,7.60
2023-03-02T14:32:04.205Z,7.93
2023-03-02T14:34:30.839Z,8.07
2023-03-02T14:37:02.490Z,9.13
2023-03-02T14:39:38.499Z,9.90
2023-03-02T14:42:06.616Z,9.20
2023-03-02T14:44:33.242Z,9.87
2023-03-02T14:47:03.756Z,9.33
2023-03-02T14:49:30.311Z,10.90
2023-03-02T14:52:05.596Z,11.57
2023-03-02T14:54:42.881Z,13.63
2023-03-02T14:57:22.350Z,13.97
2023-03-02T14:59:49.340Z,15.03
2023-03-02T15:02:25.200Z,15.57
2023-03-02T15:04:56.078Z,13.43
2023-03-02T15:07:24.210Z,13.43
2023-03-02T15:09:50.837Z,11.90
2023-03-02T15:12:17.488Z,13.87
2023-03-02T15:14:44.059Z,13.23
2023-03-02T15:17:10.806Z,15.20
2023-03-02T15:19:37.461Z,16.60
2023-03-02T15:22:04.497Z,16.10
2023-03-02T15:24:33.259Z,15.57
2023-03-02T15:27:00.156Z,16.40
2023-03-02T15:29:26.763Z,16.87
2023-03-02T15:31:53.505Z,17.33
2023-03-02T15:34:20.271Z,16.57
2023-03-02T15:36:46.903Z,16.30
2023-03-02T15:39:14.729Z,16.47
2023-03-02T15:41:44.423Z,17.93
2023-03-02T15:44:23.807Z,17.83
2023-03-02T15:46:53.306Z,16.87
2023-03-02T15:49:22.767Z,16.73
2023-03-02T15:51:51.865Z,15.87
2023-03-02T15:54:18.887Z,15.60
2023-03-02T15:56:47.800Z,15.67
2023-03-02T15:59:15.181Z,17.57
2023-03-02T16:01:41.724Z,17.13
2023-03-02T16:04:08.368Z,12.23
2023-03-02T16:06:34.988Z,11.17
2023-03-02T16:09:01.583Z,10.47
2023-03-02T16:11:28.263Z,9.43
2023-03-02T16:13:54.812Z,9.83
2023-03-02T16:16:21.907Z,9.93
2023-03-02T16:18:56.937Z,10.87
2023-03-02T16:21:25.546Z,10.30
2023-03-02T16:23:53.900Z,10.23
2023-03-02T16:26:22.196Z,10.87
2023-03-02T16:28:49.155Z,10.37
2023-03-02T16:31:19.735Z,10.67
2023-03-02T16:33:47.384Z,11.40
2023-03-02T16:36:14.584Z,11.77
2023-03-02T16:38:41.343Z,11.77
2023-03-02T16:41:15.321Z,12.27
2023-03-02T16:43:58.868Z,10.23
2023-03-02T16:46:28.860Z,9.87
2023-03-02T16:48:56.626Z,9.90
2023-03-02T16:51:23.348Z,9.23
2023-03-02T16:53:49.959Z,9.07
2023-03-02T16:56:16.753Z,8.60
2023-03-02T16:58:43.545Z,9.13
2023-03-02T17:01:18.849Z,9.50
2023-03-02T17:03:46.437Z,8.67
2023-03-02T17:06:15.454Z,8.87
2023-03-02T17:08:42.357Z,8.83
2023-03-02T17:11:09.071Z,8.17
2023-03-02T17:13:36.122Z,8.10
2023-03-02T17:16:03.176Z,8.20
2023-03-02T17:18:30.714Z,7.80
2023-03-02T17:20:58.732Z,8.17
2023-03-02T17:23:27.056Z,8.37
2023-03-02T17:25:54.310Z,7.97
2023-03-02T17:28:20.955Z,8.63
2023-03-02T17:30:47.831Z,8.57
2023-03-02T17:33:14.443Z,7.57
2023-03-02T17:35:41.048Z,7.93
2023-03-02T17:38:07.631Z,7.77
2023-03-02T17:40:34.317Z,6.83
2023-03-02T17:43:00.920Z,7.93
2023-03-02T17:45:28.626Z,7.13
2023-03-02T17:47:57.703Z,7.43
2023-03-02T17:50:24.883Z,7.53
2023-03-02T17:52:51.584Z,8.10
2023-03-02T17:55:21.089Z,8.03
2023-03-02T17:57:47.869Z,7.77
2023-03-02T18:00:18.637Z,12.20
2023-03-02T18:02:48.590Z,12.30
2023-03-02T18:05:15.254Z,7.87
2023-03-02T18:07:41.836Z,8.50
2023-03-02T18:10:09.521Z,8.03
2023-03-02T18:12:36.553Z,7.70
2023-03-02T18:15:03.737Z,7.53
2023-03-02T18:17:30.352Z,7.37
2023-03-02T18:19:57.061Z,8.20
2023-03-02T18:22:23.684Z,7.47
2023-03-02T18:24:51.893Z,8.10
2023-03-02T18:27:18.587Z,9.00
2023-03-02T18:29:45.244Z,7.80
2023-03-02T18:32:12.781Z,7.27
2023-03-02T18:34:39.790Z,7.40
2023-03-02T18:37:06.472Z,7.80
2023-03-02T18:39:33.039Z,6.87
2023-03-02T18:42:00.058Z,6.80
2023-03-02T18:44:28.287Z,6.83
2023-03-02T18:46:55.704Z,6.53
2023-03-02T18:49:23.031Z,7.00
2023-03-02T18:51:54.910Z,6.60
2023-03-02T18:54:21.547Z,7.03
2023-03-02T18:56:48.159Z,6.17
2023-03-02T18:59:14.874Z,7.13
2023-03-02T19:01:41.465Z,7.30
2023-03-02T19:04:08.714Z,6.70
2023-03-02T19:06:35.645Z,6.40
2023-03-02T19:09:02.323Z,6.67
2023-03-02T19:11:28.886Z,7.00
2023-03-02T19:13:55.624Z,6.10
2023-03-02T19:16:22.272Z,6.27
2023-03-02T19:18:49.985Z,6.87
2023-03-02T19:21:16.963Z,7.63
2023-03-02T19:23:45.540Z,7.43
2023-03-02T19:26:13.258Z,7.00
2023-03-02T19:28:39.909Z,8.20
2023-03-02T19:31:08.743Z,8.23
2023-03-02T19:33:36.029Z,8.13
2023-03-02T19:36:03.638Z,7.93
2023-03-02T19:38:30.631Z,7.93
2023-03-02T19:40:58.179Z,8.20
2023-03-02T19:43:26.494Z,8.03
2023-03-02T19:45:53.362Z,8.83
2023-03-02T19:48:20.432Z,9.33
2023-03-02T19:50:47.589Z,8.10
2023-03-02T19:53:14.709Z,8.57
2023-03-02T19:55:42.646Z,8.47
2023-03-02T19:58:11.180Z,8.60
2023-03-02T20:00:38.852Z,8.93
2023-03-02T20:03:06.178Z,8.50
2023-03-02T20:05:32.894Z,9.07
2023-03-02T20:07:59.448Z,9.23
2023-03-02T20:10:39.371Z,9.90
2023-03-02T20:13:06.642Z,8.50
2023-03-02T20:15:34.971Z,8.37
2023-03-02T20:18:02.514Z,8.37
2023-03-02T20:20:30.592Z,9.10
2023-03-02T20:22:57.269Z,8.80
2023-03-02T20:25:23.874Z,8.70
2023-03-02T20:27:51.799Z,8.90
2023-03-02T20:30:27.905Z,8.30
2023-03-02T20:32:56.063Z,8.63
2023-03-02T20:35:23.128Z,8.53
2023-03-02T20:37:50.584Z,8.50
2023-03-02T20:40:18.481Z,7.80
2023-03-02T20:42:45.246Z,8.03
2023-03-02T20:45:12.409Z,7.70
2023-03-02T20:47:40.387Z,7.77
2023-03-02T20:50:10.799Z,7.43
2023-03-02T20:52:37.929Z,7.27
2023-03-02T20:55:06.521Z,7.67
2023-03-02T20:57:33.267Z,7.37
2023-03-02T21:00:00.383Z,7.77
2023-03-02T21:02:27.074Z,8.27
2023-03-02T21:04:54.005Z,7.57
2023-03-02T21:07:20.694Z,7.50
2023-03-02T21:09:47.506Z,7.30
2023-03-02T21:12:14.358Z,7.77
2023-03-02T21:14:41.326Z,7.40
2023-03-02T21:17:08.891Z,7.90
2023-03-02T21:19:35.670Z,8.77
2023-03-02T21:22:02.767Z,8.40
2023-03-02T21:24:29.801Z,8.83
2023-03-02T21:26:57.047Z,9.60
2023-03-02T21:29:24.915Z,9.60
2023-03-02T21:31:51.637Z,9.10
2023-03-02T21:34:21.858Z,9.40
2023-03-02T21:36:50.727Z,9.20
2023-03-02T21:39:17.419Z,9.10
2023-03-02T21:41:43.999Z,9.73
2023-03-02T21:44:10.695Z,10.50
2023-03-02T21:46:37.906Z,10.40
2023-03-02T21:49:05.071Z,9.50
2023-03-02T21:51:31.777Z,10.83
2023-03-02T21:53:58.332Z,10.60
2023-03-02T21:56:25.792Z,11.33
2023-03-02T21:58:55.386Z,10.07
2023-03-02T22:01:22.589Z,10.37
2023-03-02T22:03:49.948Z,10.30
2023-03-02T22:06:23.445Z,9.50
2023-03-02T22:08:50.765Z,9.23
2023-03-02T22:11:24.083Z,10.17
2023-03-02T22:13:52.559Z,9.87
2023-03-02T22:16:25.137Z,9.83
2023-03-02T22:18:57.647Z,9.83
2023-03-02T22:21:28.576Z,9.83
2023-03-02T22:24:09.696Z,10.20
2023-03-02T22:26:40.194Z,10.70
2023-03-02T22:29:12.892Z,10.63
2023-03-02T22:31:44.343Z,10.57
2023-03-02T22:34:18.201Z,10.43
2023-03-02T22:36:46.796Z,10.30
2023-03-02T22:39:29.793Z,10.30
2023-03-02T22:42:19.912Z,10.50
2023-03-02T22:44:58.811Z,9.97
2023-03-02T22:47:25.423Z,9.67
2023-03-02T22:49:58.255Z,10.00
2023-03-02T22:52:27.688Z,11.33
2023-03-02T22:54:55.099Z,10.47
2023-03-02T22:57:34.676Z,10.53
2023-03-02T23:00:16.259Z,10.70
2023-03-02T23:02:45.394Z,11.43
2023-03-02T23:05:30.648Z,11.57
2023-03-02T23:08:27.750Z,10.57
2023-03-02T23:10:59.929Z,10.40
2023-03-02T23:13:37.765Z,10.47
2023-03-02T23:16:16.803Z,11.07
2023-03-02T23:18:43.890Z,10.83
2023-03-02T23:21:28.231Z,10.47
2023-03-02T23:23:55.375Z,10.67
2023-03-02T23:26:22.138Z,11.53
2023-03-02T23:28:50.631Z,10.43
2023-03-02T23:31:21.224Z,11.53
2023-03-02T23:33:48.258Z,10.80
2023-03-02T23:36:14.978Z,11.20
2023-03-02T23:38:41.729Z,11.23
2023-03-02T23:41:09.827Z,10.70
2023-03-02T23:43:36.619Z,11.57
2023-03-02T23:46:03.493Z,11.37
2023-03-02T23:48:30.296Z,11.40
2023-03-02T23:50:57.304Z,11.10
2023-03-02T23:53:24.299Z,10.47
2023-03-02T23:55:53.341Z,10.73
2023-03-02T23:58:20.227Z,10.73
